11:27
Airports
History
Links
Donate
Help keep this website running!
PayPal
Bitcoin
This page is community maintained. The information is intended for PC simulator navigation or reference.
Always use approved charts for navigation.
LILN
VENEGONO
VENEGONO (LILN)
Venegono Superiore, Lombardia, Italy (21040)
(U)
Lat/Lng:45° 44' 31.87" N / 8° 53' 17.64" E
45.742187 / 8.888232
Elevation:1050'ft / 320mMSL
ID / ICAO:LILN
Runways:1
Longest:18-36
Asphalt 1,416m / 4,646ft
Nearby Weather11:20 GMT 2017-12-11
Nearby weather at LIMC, Milano Malpensa located 10.9 nautical miles from LILN
Altimeter: 29.47
Visibility: 0.8 statute miles
Wind: 5 knots (from 020°)
Temp: 1°c / 34°f
Humidity: 100.0%

METAR: LIMC 111120Z 02005KT 1300 R35R/P1500N R17L/P1500N R35L/P1500N DZ BR BKN003 OVC020 01/01 Q0998 NOSIG

(Powered by phpweather)
Airport Radio Frequencies
Tower: 128.55
Nearby VORs <50NM
Nearby NDBs
Runway 18 / 36
Dimensions:1416.2 x 39.9m 4646' x 131'ft
Surface:Asphalt
Runway 18 [A]Runway 36 [B]
Heading:175°TH 355°TH
Lat:
Lng:
45° 44' 54.8"N
8° 53' 15.13"E
45° 44' 8.94"N
8° 53' 20.14"E
User Notes and Comments
45° 44' 31.87" N / 8° 53' 17.64" E
Distance To
Airport ID:
Nearby Airports
4 Calcinate del Pesce 7.4 NM
LILC NW 308°
(C) Milano Malpensa 10.9 NM
LIMC ( WX ) SW 225°
(U) Alzate Brianza 13.3 NM
LILB E 81°
(C) CAMERI 18.0 NM
LIMN ( WX ) SW 215°
(C) Lugano 18.1 NM
LSZA ( WX ) N
(U) Bresso 20.6 NM
LIMB SE 132°
(C) Milano Linate 27.7 NM
LIML ( WX ) SE 137°
VFR Chart
Flight Planning at SkyVector.com